Terminal Aerodrome Forecast
Issued by NWS

Home | Current Version | Previous Version | Text Only | Print | Product List | Glossary On
Versions: 1 2 3 4 5 6 7 8 9 10 11 12 13 14
000
FTUS43 KICT 011353 AAA
TAFCNU
TAF AMD
KCNU 011353Z 0114/0212 15006KT P6SM BKN120
     FM011600 17014KT P6SM SCT120
     FM011800 17021G30KT P6SM SCT040
     FM020300 17018G28KT P6SM BKN025
     FM020600 17018G28KT P6SM VCTS BKN060CB=

USA.gov is the U.S. government's official web portal to all federal, state and local government web resources and services.